sensor_id;sensor_type;location;lat;lon;timestamp;P1;durP1;ratioP1;P2;durP2;ratioP2
8938;SDS011;4504;48.810;9.172;2024-03-22T00:00:35;124.22;;;7.35;;
8938;SDS011;4504;48.810;9.172;2024-03-22T00:03:02;122.50;;;6.70;;
8938;SDS011;4504;48.810;9.172;2024-03-22T00:05:29;120.95;;;6.47;;
8938;SDS011;4504;48.810;9.172;2024-03-22T00:07:55;123.03;;;7.03;;
8938;SDS011;4504;48.810;9.172;2024-03-22T00:10:23;121.38;;;6.80;;
8938;SDS011;4504;48.810;9.172;2024-03-22T00:12:49;121.63;;;6.93;;
8938;SDS011;4504;48.810;9.172;2024-03-22T00:15:16;123.70;;;7.47;;
8938;SDS011;4504;48.810;9.172;2024-03-22T00:17:42;120.10;;;6.07;;
8938;SDS011;4504;48.810;9.172;2024-03-22T00:20:09;122.22;;;6.80;;
8938;SDS011;4504;48.810;9.172;2024-03-22T00:22:36;122.32;;;6.57;;
8938;SDS011;4504;48.810;9.172;2024-03-22T00:25:06;123.38;;;6.72;;
8938;SDS011;4504;48.810;9.172;2024-03-22T00:27:34;122.18;;;6.45;;
8938;SDS011;4504;48.810;9.172;2024-03-22T00:30:01;120.90;;;5.57;;
8938;SDS011;4504;48.810;9.172;2024-03-22T00:32:28;122.40;;;6.15;;
8938;SDS011;4504;48.810;9.172;2024-03-22T00:34:55;123.68;;;6.32;;
8938;SDS011;4504;48.810;9.172;2024-03-22T00:37:21;126.65;;;5.97;;
8938;SDS011;4504;48.810;9.172;2024-03-22T00:39:48;120.32;;;5.90;;
8938;SDS011;4504;48.810;9.172;2024-03-22T00:42:14;121.53;;;6.83;;
8938;SDS011;4504;48.810;9.172;2024-03-22T00:44:42;123.85;;;7.10;;
8938;SDS011;4504;48.810;9.172;2024-03-22T00:47:08;123.43;;;6.00;;
8938;SDS011;4504;48.810;9.172;2024-03-22T00:49:35;122.50;;;7.28;;
8938;SDS011;4504;48.810;9.172;2024-03-22T00:52:01;125.10;;;6.87;;
8938;SDS011;4504;48.810;9.172;2024-03-22T00:54:28;121.57;;;6.65;;
8938;SDS011;4504;48.810;9.172;2024-03-22T00:56:54;123.27;;;6.10;;
8938;SDS011;4504;48.810;9.172;2024-03-22T00:59:21;122.18;;;6.30;;
8938;SDS011;4504;48.810;9.172;2024-03-22T01:01:48;123.55;;;6.45;;
8938;SDS011;4504;48.810;9.172;2024-03-22T01:04:15;123.88;;;6.05;;
8938;SDS011;4504;48.810;9.172;2024-03-22T01:06:41;122.20;;;6.87;;
8938;SDS011;4504;48.810;9.172;2024-03-22T01:09:08;120.57;;;6.25;;
8938;SDS011;4504;48.810;9.172;2024-03-22T01:11:35;123.22;;;6.65;;
8938;SDS011;4504;48.810;9.172;2024-03-22T01:14:01;124.65;;;5.88;;
8938;SDS011;4504;48.810;9.172;2024-03-22T01:16:28;122.68;;;6.80;;
8938;SDS011;4504;48.810;9.172;2024-03-22T01:18:56;121.18;;;6.47;;
8938;SDS011;4504;48.810;9.172;2024-03-22T01:21:22;123.75;;;6.82;;
8938;SDS011;4504;48.810;9.172;2024-03-22T01:23:50;125.57;;;7.95;;
8938;SDS011;4504;48.810;9.172;2024-03-22T01:26:17;122.57;;;5.95;;
8938;SDS011;4504;48.810;9.172;2024-03-22T01:28:44;125.30;;;6.85;;
8938;SDS011;4504;48.810;9.172;2024-03-22T01:31:10;118.80;;;6.30;;
8938;SDS011;4504;48.810;9.172;2024-03-22T01:33:37;121.82;;;6.80;;
8938;SDS011;4504;48.810;9.172;2024-03-22T01:36:04;125.80;;;7.30;;
8938;SDS011;4504;48.810;9.172;2024-03-22T01:38:32;123.78;;;7.15;;
8938;SDS011;4504;48.810;9.172;2024-03-22T01:40:58;124.20;;;7.32;;
8938;SDS011;4504;48.810;9.172;2024-03-22T01:43:25;122.13;;;6.55;;
8938;SDS011;4504;48.810;9.172;2024-03-22T01:45:51;125.70;;;7.87;;
8938;SDS011;4504;48.810;9.172;2024-03-22T01:48:18;123.43;;;6.63;;
8938;SDS011;4504;48.810;9.172;2024-03-22T01:50:44;124.35;;;7.53;;
8938;SDS011;4504;48.810;9.172;2024-03-22T01:53:13;120.60;;;6.13;;
8938;SDS011;4504;48.810;9.172;2024-03-22T01:55:39;121.15;;;6.20;;
8938;SDS011;4504;48.810;9.172;2024-03-22T01:58:06;121.00;;;6.15;;
8938;SDS011;4504;48.810;9.172;2024-03-22T02:00:32;123.18;;;6.57;;
8938;SDS011;4504;48.810;9.172;2024-03-22T02:02:59;122.00;;;6.50;;
8938;SDS011;4504;48.810;9.172;2024-03-22T02:05:25;120.97;;;7.17;;
8938;SDS011;4504;48.810;9.172;2024-03-22T02:07:52;121.53;;;6.40;;
8938;SDS011;4504;48.810;9.172;2024-03-22T02:10:20;123.15;;;6.70;;
8938;SDS011;4504;48.810;9.172;2024-03-22T02:12:47;124.32;;;7.38;;
8938;SDS011;4504;48.810;9.172;2024-03-22T02:15:14;121.38;;;7.00;;
8938;SDS011;4504;48.810;9.172;2024-03-22T02:17:40;124.30;;;7.67;;
8938;SDS011;4504;48.810;9.172;2024-03-22T02:20:07;124.15;;;8.27;;
8938;SDS011;4504;48.810;9.172;2024-03-22T02:22:34;130.57;;;8.13;;
8938;SDS011;4504;48.810;9.172;2024-03-22T02:25:02;119.53;;;5.90;;
8938;SDS011;4504;48.810;9.172;2024-03-22T02:27:29;123.28;;;6.93;;
8938;SDS011;4504;48.810;9.172;2024-03-22T02:29:56;123.22;;;6.82;;
8938;SDS011;4504;48.810;9.172;2024-03-22T02:32:22;125.40;;;6.88;;
8938;SDS011;4504;48.810;9.172;2024-03-22T02:34:49;125.35;;;7.80;;
8938;SDS011;4504;48.810;9.172;2024-03-22T02:37:15;123.57;;;7.32;;
8938;SDS011;4504;48.810;9.172;2024-03-22T02:39:42;123.97;;;7.38;;
8938;SDS011;4504;48.810;9.172;2024-03-22T02:42:09;123.63;;;7.30;;
8938;SDS011;4504;48.810;9.172;2024-03-22T02:44:36;123.43;;;7.68;;
8938;SDS011;4504;48.810;9.172;2024-03-22T02:47:07;122.03;;;7.00;;
8938;SDS011;4504;48.810;9.172;2024-03-22T02:49:34;124.38;;;7.15;;
8938;SDS011;4504;48.810;9.172;2024-03-22T02:52:00;122.68;;;7.13;;
8938;SDS011;4504;48.810;9.172;2024-03-22T02:54:27;122.18;;;7.70;;
8938;SDS011;4504;48.810;9.172;2024-03-22T02:56:53;123.05;;;8.43;;
8938;SDS011;4504;48.810;9.172;2024-03-22T02:59:25;122.38;;;7.60;;
8938;SDS011;4504;48.810;9.172;2024-03-22T03:01:51;126.10;;;7.57;;
8938;SDS011;4504;48.810;9.172;2024-03-22T03:04:18;128.95;;;10.18;;
8938;SDS011;4504;48.810;9.172;2024-03-22T03:06:44;124.80;;;8.45;;
8938;SDS011;4504;48.810;9.172;2024-03-22T03:09:11;124.03;;;7.70;;
8938;SDS011;4504;48.810;9.172;2024-03-22T03:11:37;123.18;;;8.02;;
8938;SDS011;4504;48.810;9.172;2024-03-22T03:14:05;132.35;;;8.32;;
8938;SDS011;4504;48.810;9.172;2024-03-22T03:16:32;122.13;;;6.85;;
8938;SDS011;4504;48.810;9.172;2024-03-22T03:18:59;123.07;;;7.40;;
8938;SDS011;4504;48.810;9.172;2024-03-22T03:21:25;123.23;;;7.33;;
8938;SDS011;4504;48.810;9.172;2024-03-22T03:23:52;126.75;;;9.80;;
8938;SDS011;4504;48.810;9.172;2024-03-22T03:26:18;127.15;;;8.88;;
8938;SDS011;4504;48.810;9.172;2024-03-22T03:28:45;123.03;;;7.70;;
8938;SDS011;4504;48.810;9.172;2024-03-22T03:31:11;123.80;;;7.43;;
8938;SDS011;4504;48.810;9.172;2024-03-22T03:33:39;128.80;;;8.80;;
8938;SDS011;4504;48.810;9.172;2024-03-22T03:36:06;122.88;;;7.35;;
8938;SDS011;4504;48.810;9.172;2024-03-22T03:38:33;125.25;;;8.07;;
8938;SDS011;4504;48.810;9.172;2024-03-22T03:40:59;123.87;;;7.53;;
8938;SDS011;4504;48.810;9.172;2024-03-22T03:43:26;123.95;;;8.35;;
8938;SDS011;4504;48.810;9.172;2024-03-22T03:45:51;126.20;;;8.90;;
8938;SDS011;4504;48.810;9.172;2024-03-22T03:48:19;123.57;;;7.10;;
8938;SDS011;4504;48.810;9.172;2024-03-22T03:50:52;125.65;;;7.00;;
8938;SDS011;4504;48.810;9.172;2024-03-22T03:53:20;122.22;;;6.88;;
8938;SDS011;4504;48.810;9.172;2024-03-22T03:55:46;123.32;;;8.00;;
8938;SDS011;4504;48.810;9.172;2024-03-22T03:58:13;125.15;;;8.35;;
8938;SDS011;4504;48.810;9.172;2024-03-22T04:00:39;128.05;;;8.35;;
8938;SDS011;4504;48.810;9.172;2024-03-22T04:03:06;122.55;;;7.82;;
8938;SDS011;4504;48.810;9.172;2024-03-22T04:05:32;123.70;;;8.20;;
8938;SDS011;4504;48.810;9.172;2024-03-22T04:08:00;122.63;;;7.10;;
8938;SDS011;4504;48.810;9.172;2024-03-22T04:10:27;123.15;;;7.10;;
8938;SDS011;4504;48.810;9.172;2024-03-22T04:12:54;125.10;;;6.65;;
8938;SDS011;4504;48.810;9.172;2024-03-22T04:15:20;122.28;;;7.25;;
8938;SDS011;4504;48.810;9.172;2024-03-22T04:17:47;123.85;;;6.88;;
8938;SDS011;4504;48.810;9.172;2024-03-22T04:20:13;121.95;;;7.00;;
8938;SDS011;4504;48.810;9.172;2024-03-22T04:22:40;124.43;;;6.25;;
8938;SDS011;4504;48.810;9.172;2024-03-22T04:25:08;122.87;;;7.90;;
8938;SDS011;4504;48.810;9.172;2024-03-22T04:27:35;121.25;;;6.75;;
8938;SDS011;4504;48.810;9.172;2024-03-22T04:30:01;123.88;;;7.57;;
8938;SDS011;4504;48.810;9.172;2024-03-22T04:32:29;123.60;;;7.55;;
8938;SDS011;4504;48.810;9.172;2024-03-22T04:34:55;123.10;;;7.20;;
8938;SDS011;4504;48.810;9.172;2024-03-22T04:37:22;123.65;;;8.55;;
8938;SDS011;4504;48.810;9.172;2024-03-22T04:39:49;124.43;;;8.25;;
8938;SDS011;4504;48.810;9.172;2024-03-22T04:42:17;124.50;;;7.93;;
8938;SDS011;4504;48.810;9.172;2024-03-22T04:44:45;125.32;;;7.65;;
8938;SDS011;4504;48.810;9.172;2024-03-22T04:47:12;127.22;;;7.57;;
8938;SDS011;4504;48.810;9.172;2024-03-22T04:49:38;120.68;;;6.50;;
8938;SDS011;4504;48.810;9.172;2024-03-22T04:52:05;123.65;;;7.72;;
8938;SDS011;4504;48.810;9.172;2024-03-22T04:54:31;124.07;;;7.80;;
8938;SDS011;4504;48.810;9.172;2024-03-22T04:56:58;121.82;;;7.50;;
8938;SDS011;4504;48.810;9.172;2024-03-22T04:59:26;126.30;;;7.83;;
8938;SDS011;4504;48.810;9.172;2024-03-22T05:01:53;122.97;;;7.35;;
8938;SDS011;4504;48.810;9.172;2024-03-22T05:04:19;124.07;;;7.25;;
8938;SDS011;4504;48.810;9.172;2024-03-22T05:06:46;123.30;;;6.25;;
8938;SDS011;4504;48.810;9.172;2024-03-22T05:09:12;122.67;;;7.57;;
8938;SDS011;4504;48.810;9.172;2024-03-22T05:11:39;123.60;;;7.00;;
8938;SDS011;4504;48.810;9.172;2024-03-22T05:14:05;122.77;;;7.40;;
8938;SDS011;4504;48.810;9.172;2024-03-22T05:16:33;122.68;;;7.18;;
8938;SDS011;4504;48.810;9.172;2024-03-22T05:19:00;123.30;;;7.10;;
8938;SDS011;4504;48.810;9.172;2024-03-22T05:21:27;128.27;;;7.55;;
8938;SDS011;4504;48.810;9.172;2024-03-22T05:23:53;120.67;;;6.60;;
8938;SDS011;4504;48.810;9.172;2024-03-22T05:26:20;123.65;;;6.70;;
8938;SDS011;4504;48.810;9.172;2024-03-22T05:28:46;122.03;;;6.68;;
8938;SDS011;4504;48.810;9.172;2024-03-22T05:31:13;122.22;;;7.07;;
8938;SDS011;4504;48.810;9.172;2024-03-22T05:33:41;123.97;;;7.63;;
8938;SDS011;4504;48.810;9.172;2024-03-22T05:36:08;125.88;;;7.82;;
8938;SDS011;4504;48.810;9.172;2024-03-22T05:38:34;123.07;;;6.90;;
8938;SDS011;4504;48.810;9.172;2024-03-22T05:41:03;124.13;;;7.50;;
8938;SDS011;4504;48.810;9.172;2024-03-22T05:43:29;123.32;;;7.10;;
8938;SDS011;4504;48.810;9.172;2024-03-22T05:45:56;124.78;;;7.05;;
8938;SDS011;4504;48.810;9.172;2024-03-22T05:48:22;122.72;;;6.93;;
8938;SDS011;4504;48.810;9.172;2024-03-22T05:50:51;126.80;;;7.55;;
8938;SDS011;4504;48.810;9.172;2024-03-22T05:53:18;125.07;;;7.82;;
8938;SDS011;4504;48.810;9.172;2024-03-22T05:55:45;122.90;;;7.50;;
8938;SDS011;4504;48.810;9.172;2024-03-22T05:58:11;122.40;;;6.60;;
8938;SDS011;4504;48.810;9.172;2024-03-22T06:00:38;122.93;;;6.85;;
8938;SDS011;4504;48.810;9.172;2024-03-22T06:03:04;122.72;;;7.13;;
8938;SDS011;4504;48.810;9.172;2024-03-22T06:05:31;121.72;;;6.57;;
8938;SDS011;4504;48.810;9.172;2024-03-22T06:08:00;127.60;;;9.15;;
8938;SDS011;4504;48.810;9.172;2024-03-22T06:10:28;125.22;;;7.35;;
8938;SDS011;4504;48.810;9.172;2024-03-22T06:12:54;124.40;;;7.28;;
8938;SDS011;4504;48.810;9.172;2024-03-22T06:15:21;121.03;;;6.65;;
8938;SDS011;4504;48.810;9.172;2024-03-22T06:17:48;123.25;;;6.80;;
8938;SDS011;4504;48.810;9.172;2024-03-22T06:20:15;125.07;;;8.40;;
8938;SDS011;4504;48.810;9.172;2024-03-22T06:22:41;122.88;;;7.18;;
8938;SDS011;4504;48.810;9.172;2024-03-22T06:25:10;127.97;;;8.20;;
8938;SDS011;4504;48.810;9.172;2024-03-22T06:27:36;122.38;;;7.38;;
8938;SDS011;4504;48.810;9.172;2024-03-22T06:30:03;126.53;;;6.68;;
8938;SDS011;4504;48.810;9.172;2024-03-22T06:32:29;122.68;;;7.82;;
8938;SDS011;4504;48.810;9.172;2024-03-22T06:34:56;123.03;;;6.80;;
8938;SDS011;4504;48.810;9.172;2024-03-22T06:37:22;120.40;;;6.20;;
8938;SDS011;4504;48.810;9.172;2024-03-22T06:39:49;123.47;;;6.72;;
8938;SDS011;4504;48.810;9.172;2024-03-22T06:42:17;122.47;;;6.60;;
8938;SDS011;4504;48.810;9.172;2024-03-22T06:44:43;122.70;;;7.50;;
8938;SDS011;4504;48.810;9.172;2024-03-22T06:47:09;124.10;;;7.57;;
8938;SDS011;4504;48.810;9.172;2024-03-22T06:49:36;142.77;;;7.82;;
8938;SDS011;4504;48.810;9.172;2024-03-22T06:52:03;122.10;;;7.27;;
8938;SDS011;4504;48.810;9.172;2024-03-22T06:54:30;124.53;;;7.18;;
8938;SDS011;4504;48.810;9.172;2024-03-22T06:56:56;122.72;;;7.35;;
8938;SDS011;4504;48.810;9.172;2024-03-22T06:59:24;124.75;;;7.18;;
8938;SDS011;4504;48.810;9.172;2024-03-22T07:01:50;120.10;;;6.28;;
8938;SDS011;4504;48.810;9.172;2024-03-22T07:04:36;121.68;;;6.90;;
8938;SDS011;4504;48.810;9.172;2024-03-22T07:07:03;120.22;;;6.35;;
8938;SDS011;4504;48.810;9.172;2024-03-22T07:09:32;124.88;;;6.90;;
8938;SDS011;4504;48.810;9.172;2024-03-22T07:11:59;127.22;;;7.05;;
8938;SDS011;4504;48.810;9.172;2024-03-22T07:14:26;124.28;;;8.10;;
8938;SDS011;4504;48.810;9.172;2024-03-22T07:16:53;122.00;;;7.03;;
8938;SDS011;4504;48.810;9.172;2024-03-22T07:19:19;125.47;;;7.47;;
8938;SDS011;4504;48.810;9.172;2024-03-22T07:21:48;122.88;;;7.15;;
8938;SDS011;4504;48.810;9.172;2024-03-22T07:24:14;121.18;;;6.35;;
8938;SDS011;4504;48.810;9.172;2024-03-22T07:26:41;121.82;;;7.25;;
8938;SDS011;4504;48.810;9.172;2024-03-22T07:29:07;118.27;;;6.30;;
8938;SDS011;4504;48.810;9.172;2024-03-22T07:31:34;122.97;;;6.93;;
8938;SDS011;4504;48.810;9.172;2024-03-22T07:33:59;121.97;;;6.97;;
8938;SDS011;4504;48.810;9.172;2024-03-22T07:36:27;121.65;;;6.28;;
8938;SDS011;4504;48.810;9.172;2024-03-22T07:38:54;122.37;;;6.43;;
8938;SDS011;4504;48.810;9.172;2024-03-22T07:41:21;122.38;;;5.93;;
8938;SDS011;4504;48.810;9.172;2024-03-22T07:43:47;120.47;;;6.50;;
8938;SDS011;4504;48.810;9.172;2024-03-22T07:46:14;122.28;;;7.10;;
8938;SDS011;4504;48.810;9.172;2024-03-22T07:48:40;119.97;;;6.40;;
8938;SDS011;4504;48.810;9.172;2024-03-22T07:51:07;120.53;;;6.80;;
8938;SDS011;4504;48.810;9.172;2024-03-22T07:53:33;119.47;;;6.27;;
8938;SDS011;4504;48.810;9.172;2024-03-22T07:56:02;120.13;;;5.95;;
8938;SDS011;4504;48.810;9.172;2024-03-22T07:58:28;122.22;;;6.75;;
8938;SDS011;4504;48.810;9.172;2024-03-22T08:00:55;121.80;;;8.27;;
8938;SDS011;4504;48.810;9.172;2024-03-22T08:03:21;130.25;;;7.00;;
8938;SDS011;4504;48.810;9.172;2024-03-22T08:05:49;119.82;;;6.57;;
8938;SDS011;4504;48.810;9.172;2024-03-22T08:08:15;120.95;;;7.07;;
8938;SDS011;4504;48.810;9.172;2024-03-22T08:10:54;120.55;;;6.10;;
8938;SDS011;4504;48.810;9.172;2024-03-22T08:13:21;119.22;;;6.10;;
8938;SDS011;4504;48.810;9.172;2024-03-22T08:15:48;121.43;;;6.28;;
8938;SDS011;4504;48.810;9.172;2024-03-22T08:18:14;119.03;;;6.67;;
8938;SDS011;4504;48.810;9.172;2024-03-22T08:20:41;119.07;;;6.15;;
8938;SDS011;4504;48.810;9.172;2024-03-22T08:23:07;119.88;;;6.10;;
8938;SDS011;4504;48.810;9.172;2024-03-22T08:25:34;119.45;;;6.15;;
8938;SDS011;4504;48.810;9.172;2024-03-22T08:28:00;119.03;;;5.83;;
8938;SDS011;4504;48.810;9.172;2024-03-22T08:30:29;119.20;;;6.22;;
8938;SDS011;4504;48.810;9.172;2024-03-22T08:32:55;121.15;;;6.63;;
8938;SDS011;4504;48.810;9.172;2024-03-22T08:35:22;119.93;;;5.95;;
8938;SDS011;4504;48.810;9.172;2024-03-22T08:37:48;122.57;;;7.20;;
8938;SDS011;4504;48.810;9.172;2024-03-22T08:40:15;118.45;;;5.90;;
8938;SDS011;4504;48.810;9.172;2024-03-22T08:42:41;121.32;;;6.45;;
8938;SDS011;4504;48.810;9.172;2024-03-22T08:45:08;121.80;;;5.45;;
8938;SDS011;4504;48.810;9.172;2024-03-22T08:47:36;120.65;;;6.18;;
8938;SDS011;4504;48.810;9.172;2024-03-22T08:50:03;118.50;;;5.15;;
8938;SDS011;4504;48.810;9.172;2024-03-22T08:52:30;118.80;;;5.75;;
8938;SDS011;4504;48.810;9.172;2024-03-22T08:54:59;131.50;;;7.43;;
8938;SDS011;4504;48.810;9.172;2024-03-22T08:57:25;118.50;;;5.97;;
8938;SDS011;4504;48.810;9.172;2024-03-22T08:59:52;119.05;;;5.43;;
8938;SDS011;4504;48.810;9.172;2024-03-22T09:02:18;118.22;;;6.18;;
8938;SDS011;4504;48.810;9.172;2024-03-22T09:04:46;118.30;;;5.78;;
8938;SDS011;4504;48.810;9.172;2024-03-22T09:07:12;118.20;;;5.75;;
8938;SDS011;4504;48.810;9.172;2024-03-22T09:09:39;120.45;;;6.35;;
8938;SDS011;4504;48.810;9.172;2024-03-22T09:12:06;118.32;;;6.75;;
8938;SDS011;4504;48.810;9.172;2024-03-22T09:14:34;118.13;;;5.78;;
8938;SDS011;4504;48.810;9.172;2024-03-22T09:17:00;119.32;;;5.13;;
8938;SDS011;4504;48.810;9.172;2024-03-22T09:19:27;116.32;;;4.70;;
8938;SDS011;4504;48.810;9.172;2024-03-22T09:21:54;116.55;;;4.80;;
8938;SDS011;4504;48.810;9.172;2024-03-22T09:24:21;116.93;;;5.45;;
8938;SDS011;4504;48.810;9.172;2024-03-22T09:26:47;116.57;;;4.80;;
8938;SDS011;4504;48.810;9.172;2024-03-22T09:29:14;113.80;;;4.53;;
8938;SDS011;4504;48.810;9.172;2024-03-22T09:31:40;115.47;;;4.37;;
8938;SDS011;4504;48.810;9.172;2024-03-22T09:34:07;115.32;;;3.97;;
8938;SDS011;4504;48.810;9.172;2024-03-22T09:36:33;114.90;;;4.20;;
8938;SDS011;4504;48.810;9.172;2024-03-22T09:39:02;114.13;;;4.05;;
8938;SDS011;4504;48.810;9.172;2024-03-22T09:41:28;116.35;;;4.60;;
8938;SDS011;4504;48.810;9.172;2024-03-22T09:43:58;117.13;;;4.20;;
8938;SDS011;4504;48.810;9.172;2024-03-22T09:46:26;114.65;;;4.05;;
8938;SDS011;4504;48.810;9.172;2024-03-22T09:48:55;114.88;;;4.07;;
8938;SDS011;4504;48.810;9.172;2024-03-22T09:51:21;116.80;;;4.30;;
8938;SDS011;4504;48.810;9.172;2024-03-22T09:53:49;115.13;;;3.97;;
8938;SDS011;4504;48.810;9.172;2024-03-22T09:56:18;115.30;;;3.83;;
8938;SDS011;4504;48.810;9.172;2024-03-22T09:58:48;115.97;;;4.47;;
8938;SDS011;4504;48.810;9.172;2024-03-22T10:01:15;113.82;;;3.88;;
8938;SDS011;4504;48.810;9.172;2024-03-22T10:03:42;113.95;;;3.80;;
8938;SDS011;4504;48.810;9.172;2024-03-22T10:06:09;115.28;;;4.03;;
8938;SDS011;4504;48.810;9.172;2024-03-22T10:08:36;113.68;;;3.95;;
8938;SDS011;4504;48.810;9.172;2024-03-22T10:11:04;114.15;;;3.55;;
8938;SDS011;4504;48.810;9.172;2024-03-22T10:13:32;113.43;;;4.07;;
8938;SDS011;4504;48.810;9.172;2024-03-22T10:15:58;116.00;;;4.25;;
8938;SDS011;4504;48.810;9.172;2024-03-22T10:18:25;113.28;;;4.22;;
8938;SDS011;4504;48.810;9.172;2024-03-22T10:20:58;113.15;;;3.90;;
8938;SDS011;4504;48.810;9.172;2024-03-22T10:23:26;116.63;;;4.50;;
8938;SDS011;4504;48.810;9.172;2024-03-22T10:25:52;114.43;;;4.55;;
8938;SDS011;4504;48.810;9.172;2024-03-22T10:28:20;114.53;;;4.10;;
8938;SDS011;4504;48.810;9.172;2024-03-22T10:30:47;113.80;;;4.47;;
8938;SDS011;4504;48.810;9.172;2024-03-22T10:33:17;116.03;;;4.05;;
8938;SDS011;4504;48.810;9.172;2024-03-22T10:35:44;115.47;;;5.00;;
8938;SDS011;4504;48.810;9.172;2024-03-22T10:38:12;114.32;;;4.07;;
8938;SDS011;4504;48.810;9.172;2024-03-22T10:40:40;114.32;;;3.90;;
8938;SDS011;4504;48.810;9.172;2024-03-22T10:43:11;112.50;;;3.90;;
8938;SDS011;4504;48.810;9.172;2024-03-22T10:45:37;113.47;;;3.37;;
8938;SDS011;4504;48.810;9.172;2024-03-22T10:48:08;113.57;;;3.97;;
8938;SDS011;4504;48.810;9.172;2024-03-22T10:50:37;111.83;;;3.87;;
8938;SDS011;4504;48.810;9.172;2024-03-22T10:53:06;116.07;;;3.83;;
8938;SDS011;4504;48.810;9.172;2024-03-22T10:55:36;112.57;;;3.73;;
8938;SDS011;4504;48.810;9.172;2024-03-22T10:58:07;113.17;;;3.60;;
8938;SDS011;4504;48.810;9.172;2024-03-22T11:00:41;112.00;;;3.73;;
8938;SDS011;4504;48.810;9.172;2024-03-22T11:03:12;112.67;;;3.83;;
8938;SDS011;4504;48.810;9.172;2024-03-22T11:05:44;112.30;;;3.30;;
8938;SDS011;4504;48.810;9.172;2024-03-22T11:08:11;111.97;;;3.40;;
8938;SDS011;4504;48.810;9.172;2024-03-22T11:10:38;111.47;;;3.30;;
8938;SDS011;4504;48.810;9.172;2024-03-22T11:13:06;111.87;;;3.23;;
8938;SDS011;4504;48.810;9.172;2024-03-22T11:15:34;112.50;;;4.37;;
8938;SDS011;4504;48.810;9.172;2024-03-22T11:18:01;114.30;;;4.47;;
8938;SDS011;4504;48.810;9.172;2024-03-22T11:20:28;115.40;;;4.00;;
8938;SDS011;4504;48.810;9.172;2024-03-22T11:22:56;110.57;;;3.73;;
8938;SDS011;4504;48.810;9.172;2024-03-22T11:25:22;111.17;;;3.47;;
8938;SDS011;4504;48.810;9.172;2024-03-22T11:27:49;110.60;;;3.33;;
8938;SDS011;4504;48.810;9.172;2024-03-22T11:30:15;114.37;;;3.60;;
8938;SDS011;4504;48.810;9.172;2024-03-22T11:32:43;110.83;;;3.57;;
8938;SDS011;4504;48.810;9.172;2024-03-22T11:35:10;110.30;;;3.10;;
8938;SDS011;4504;48.810;9.172;2024-03-22T11:37:39;110.90;;;3.10;;
8938;SDS011;4504;48.810;9.172;2024-03-22T11:40:08;109.77;;;2.83;;
8938;SDS011;4504;48.810;9.172;2024-03-22T11:42:36;117.23;;;3.30;;
8938;SDS011;4504;48.810;9.172;2024-03-22T11:45:03;107.67;;;2.60;;
8938;SDS011;4504;48.810;9.172;2024-03-22T11:47:32;110.47;;;3.20;;
8938;SDS011;4504;48.810;9.172;2024-03-22T11:49:58;110.00;;;3.00;;
8938;SDS011;4504;48.810;9.172;2024-03-22T11:52:26;109.37;;;3.00;;
8938;SDS011;4504;48.810;9.172;2024-03-22T11:54:53;108.23;;;2.70;;
8938;SDS011;4504;48.810;9.172;2024-03-22T11:57:21;110.17;;;2.97;;
8938;SDS011;4504;48.810;9.172;2024-03-22T11:59:47;110.03;;;2.77;;
8938;SDS011;4504;48.810;9.172;2024-03-22T12:02:14;110.67;;;2.77;;
8938;SDS011;4504;48.810;9.172;2024-03-22T12:04:41;109.50;;;2.83;;
8938;SDS011;4504;48.810;9.172;2024-03-22T12:07:09;112.10;;;3.10;;
8938;SDS011;4504;48.810;9.172;2024-03-22T12:09:36;110.47;;;2.97;;
8938;SDS011;4504;48.810;9.172;2024-03-22T12:12:06;111.07;;;3.07;;
8938;SDS011;4504;48.810;9.172;2024-03-22T12:14:34;111.33;;;2.97;;
8938;SDS011;4504;48.810;9.172;2024-03-22T12:17:01;110.77;;;3.33;;
8938;SDS011;4504;48.810;9.172;2024-03-22T12:19:28;110.57;;;2.80;;
8938;SDS011;4504;48.810;9.172;2024-03-22T12:21:55;110.27;;;3.13;;
8938;SDS011;4504;48.810;9.172;2024-03-22T12:24:21;111.47;;;3.53;;
8938;SDS011;4504;48.810;9.172;2024-03-22T12:26:48;110.87;;;3.20;;
8938;SDS011;4504;48.810;9.172;2024-03-22T12:29:16;110.47;;;3.30;;
8938;SDS011;4504;48.810;9.172;2024-03-22T12:31:43;110.57;;;2.80;;
8938;SDS011;4504;48.810;9.172;2024-03-22T12:34:09;120.67;;;3.27;;
8938;SDS011;4504;48.810;9.172;2024-03-22T12:36:36;110.57;;;2.97;;
8938;SDS011;4504;48.810;9.172;2024-03-22T12:39:03;110.47;;;2.90;;
8938;SDS011;4504;48.810;9.172;2024-03-22T12:41:30;110.73;;;3.07;;
8938;SDS011;4504;48.810;9.172;2024-03-22T12:43:57;110.17;;;3.20;;
8938;SDS011;4504;48.810;9.172;2024-03-22T12:46:25;109.97;;;2.87;;
8938;SDS011;4504;48.810;9.172;2024-03-22T12:48:52;109.80;;;2.50;;
8938;SDS011;4504;48.810;9.172;2024-03-22T12:51:20;110.43;;;2.77;;
8938;SDS011;4504;48.810;9.172;2024-03-22T12:53:46;110.30;;;3.03;;
8938;SDS011;4504;48.810;9.172;2024-03-22T12:56:13;110.53;;;3.23;;
8938;SDS011;4504;48.810;9.172;2024-03-22T12:58:39;110.30;;;3.30;;
8938;SDS011;4504;48.810;9.172;2024-03-22T13:01:06;110.30;;;2.97;;
8938;SDS011;4504;48.810;9.172;2024-03-22T13:03:35;109.67;;;2.90;;
8938;SDS011;4504;48.810;9.172;2024-03-22T13:06:02;109.73;;;2.87;;
8938;SDS011;4504;48.810;9.172;2024-03-22T13:08:30;109.77;;;2.87;;
8938;SDS011;4504;48.810;9.172;2024-03-22T13:10:57;110.13;;;3.00;;
8938;SDS011;4504;48.810;9.172;2024-03-22T13:13:23;109.87;;;3.00;;
8938;SDS011;4504;48.810;9.172;2024-03-22T13:15:50;109.40;;;3.13;;
8938;SDS011;4504;48.810;9.172;2024-03-22T13:18:16;110.97;;;3.40;;
8938;SDS011;4504;48.810;9.172;2024-03-22T13:20:46;109.63;;;2.70;;
8938;SDS011;4504;48.810;9.172;2024-03-22T13:23:12;111.17;;;3.37;;
8938;SDS011;4504;48.810;9.172;2024-03-22T13:25:39;111.07;;;3.50;;
8938;SDS011;4504;48.810;9.172;2024-03-22T13:28:05;110.07;;;2.80;;
8938;SDS011;4504;48.810;9.172;2024-03-22T13:30:32;110.80;;;2.93;;
8938;SDS011;4504;48.810;9.172;2024-03-22T13:33:00;108.97;;;2.87;;
8938;SDS011;4504;48.810;9.172;2024-03-22T13:35:27;109.93;;;2.87;;
8938;SDS011;4504;48.810;9.172;2024-03-22T13:37:55;110.40;;;3.20;;
8938;SDS011;4504;48.810;9.172;2024-03-22T13:40:22;109.50;;;2.97;;
8938;SDS011;4504;48.810;9.172;2024-03-22T13:42:48;111.23;;;3.10;;
8938;SDS011;4504;48.810;9.172;2024-03-22T13:45:18;111.27;;;3.23;;
8938;SDS011;4504;48.810;9.172;2024-03-22T13:47:45;111.30;;;3.30;;
8938;SDS011;4504;48.810;9.172;2024-03-22T13:50:13;111.10;;;2.83;;
8938;SDS011;4504;48.810;9.172;2024-03-22T13:52:39;111.00;;;3.00;;
8938;SDS011;4504;48.810;9.172;2024-03-22T13:55:07;109.97;;;3.07;;
8938;SDS011;4504;48.810;9.172;2024-03-22T13:57:34;111.27;;;3.00;;
8938;SDS011;4504;48.810;9.172;2024-03-22T14:00:00;110.70;;;3.20;;
8938;SDS011;4504;48.810;9.172;2024-03-22T14:02:38;111.00;;;3.13;;
8938;SDS011;4504;48.810;9.172;2024-03-22T14:05:05;110.30;;;2.93;;
8938;SDS011;4504;48.810;9.172;2024-03-22T14:07:33;111.33;;;3.27;;
8938;SDS011;4504;48.810;9.172;2024-03-22T14:10:01;110.70;;;3.23;;
8938;SDS011;4504;48.810;9.172;2024-03-22T14:12:29;114.97;;;3.80;;
8938;SDS011;4504;48.810;9.172;2024-03-22T14:14:56;111.60;;;3.23;;
8938;SDS011;4504;48.810;9.172;2024-03-22T14:17:24;112.20;;;3.83;;
8938;SDS011;4504;48.810;9.172;2024-03-22T14:19:51;111.37;;;3.20;;
8938;SDS011;4504;48.810;9.172;2024-03-22T14:22:18;111.60;;;3.17;;
8938;SDS011;4504;48.810;9.172;2024-03-22T14:24:45;111.87;;;3.53;;
8938;SDS011;4504;48.810;9.172;2024-03-22T14:27:11;111.67;;;3.37;;
8938;SDS011;4504;48.810;9.172;2024-03-22T14:29:39;111.87;;;3.07;;
8938;SDS011;4504;48.810;9.172;2024-03-22T14:32:05;113.20;;;3.43;;
8938;SDS011;4504;48.810;9.172;2024-03-22T14:34:33;111.60;;;3.20;;
8938;SDS011;4504;48.810;9.172;2024-03-22T14:36:59;114.90;;;3.40;;
8938;SDS011;4504;48.810;9.172;2024-03-22T14:39:26;112.93;;;3.33;;
8938;SDS011;4504;48.810;9.172;2024-03-22T14:41:52;112.65;;;3.05;;
8938;SDS011;4504;48.810;9.172;2024-03-22T14:44:20;112.27;;;3.00;;
8938;SDS011;4504;48.810;9.172;2024-03-22T14:46:50;111.70;;;2.80;;